| State | Missouri | Latest | Good (1240 cfs) | |
| River | Meramec River | Rating | Observed | Estimated |
| Updated | 2026-05-05 6:30 (1 hour ago) | Flood - The river is flooding. Obstacles can be treacherous or deadly. The river should be avoided at this stage for casual trips and definitely for the inexperienced. Trips should be attempted only with protective gear and equipment.Flood | (none) | 4318 |
| Discharge | 1240 cfs (median: 1410 cfs) | High - The river is high and potentially dangerous, especially for the young and / or inexperienced. Normal stream obstacles are sometimes difficult to navigate. Extended distances can be attempted, but canoe travel may not be advisable.High | (none) | 1269 |
| Height | 4.39 feet | Good - Conditions are ideal for a canoe or kayak. Boats typically will drag on fewer than one-quarter of riffles, if at all, and portages are unnecessary or rare. Normal float lengths can be attempted without a problem.Good | 200 | 753 |
| Trend | Falling (falling over 24 hours) | Low - River is low but can still be floated. Some riffles are okay but most come with significant dragging and might need a portage. Float lengths should be reduced to accommodate low flow, dragging, and portages.Low | (none) | 475 |
| USGS | USGS Site ( Duck Duck Go Maps) | Poor - River is too low to float comfortably. Most or all riffles will drag or must be portaged and some obstacles (such as slick shelf rock) cause undue problems. Avoid the river at this stage for casual paddling trips.Poor | (none) | 226 |
A total of 6 rows are displayed.
| Miles | 32.8 |
| Trips | 6 |
| People | 33 |
| Dates | 6 |
| Years | 6 |
| Months | 4 |
| Rows | 6 |
| Sources | 2 |
BLG - Bluegill
CCF - Channel Catfish
CP - Chain Pickerel
FWD - Freshwater Drum
GSF - Green Sunfish
KSB - Kentucky Spotted Bass
LMB - Largemouth Bass
LSF - Longear Sunfish
RB - Rock Bass / Goggle Eye
RSF - Redear Sunfish
RT - Rainbow Trout
SMB - Smallmouth Bass
WB - White Bass
WF - Whitefish
WL - WalleyeThe classic River Trips application is still available for use. It is updated with the new system using a data retrofit. It is no longer maintained. The original River Trips application is no longer updated (as of 1 Dec 2016) but can be checked for errors or for the condition of the data before it was converted to the new system.
| Observation | Height | Discharge | Maximum Discharge | Minimum Discharge | Mean Discharge | P05 | P10 | P20 | P25 | P50 (Median) | P75 | P80 | P90 | P95 |
|---|---|---|---|---|---|---|---|---|---|---|---|---|---|---|
| 2026-05-05 06:30 | 4.39 | 1240 | 27900 (2017) | 335 (1932) | 2360 | 391 | 503 | 690 | 775 | 1410 | 2430 | 2700 | 4090 | 10400 |
| 2026-05-05 05:30 | 4.41 | 1250 | 27900 (2017) | 335 (1932) | 2360 | 391 | 503 | 690 | 775 | 1410 | 2430 | 2700 | 4090 | 10400 |
| 2026-05-05 05:15 | 4.45 | 1280 | 27900 (2017) | 335 (1932) | 2360 | 391 | 503 | 690 | 775 | 1410 | 2430 | 2700 | 4090 | 10400 |
| 2026-05-05 04:30 | 4.47 | 1300 | 27900 (2017) | 335 (1932) | 2360 | 391 | 503 | 690 | 775 | 1410 | 2430 | 2700 | 4090 | 10400 |
| 2026-05-05 03:30 | 4.48 | 1310 | 27900 (2017) | 335 (1932) | 2360 | 391 | 503 | 690 | 775 | 1410 | 2430 | 2700 | 4090 | 10400 |
| 2026-05-05 02:30 | 4.49 | 1310 | 27900 (2017) | 335 (1932) | 2360 | 391 | 503 | 690 | 775 | 1410 | 2430 | 2700 | 4090 | 10400 |
| 2026-05-05 01:30 | 4.49 | 1310 | 27900 (2017) | 335 (1932) | 2360 | 391 | 503 | 690 | 775 | 1410 | 2430 | 2700 | 4090 | 10400 |
| 2026-05-05 00:30 | 4.49 | 1310 | 27900 (2017) | 335 (1932) | 2360 | 391 | 503 | 690 | 775 | 1410 | 2430 | 2700 | 4090 | 10400 |
| 2026-05-04 23:30 | 4.49 | 1310 | 27900 (2017) | 335 (1932) | 2360 | 391 | 503 | 690 | 775 | 1410 | 2430 | 2700 | 4090 | 10400 |
| 2026-05-04 22:30 | 4.52 | 1340 | 20700 (2017) | 355 (1932) | 2520 | 410 | 544 | 725 | 826 | 1490 | 2750 | 2940 | 4980 | 9300 |
| 2026-05-04 21:30 | 4.53 | 1350 | 20700 (2017) | 355 (1932) | 2520 | 410 | 544 | 725 | 826 | 1490 | 2750 | 2940 | 4980 | 9300 |
| 2026-05-04 20:30 | 4.54 | 1350 | 20700 (2017) | 355 (1932) | 2520 | 410 | 544 | 725 | 826 | 1490 | 2750 | 2940 | 4980 | 9300 |
| 2026-05-04 19:30 | 4.55 | 1360 | 20700 (2017) | 355 (1932) | 2520 | 410 | 544 | 725 | 826 | 1490 | 2750 | 2940 | 4980 | 9300 |
| 2026-05-04 18:30 | 4.56 | 1370 | 20700 (2017) | 355 (1932) | 2520 | 410 | 544 | 725 | 826 | 1490 | 2750 | 2940 | 4980 | 9300 |
| 2026-05-04 17:30 | 4.56 | 1370 | 20700 (2017) | 355 (1932) | 2520 | 410 | 544 | 725 | 826 | 1490 | 2750 | 2940 | 4980 | 9300 |
| 2026-05-04 16:30 | 4.58 | 1390 | 20700 (2017) | 355 (1932) | 2520 | 410 | 544 | 725 | 826 | 1490 | 2750 | 2940 | 4980 | 9300 |
| 2026-05-04 15:30 | 4.55 | 1360 | 20700 (2017) | 355 (1932) | 2520 | 410 | 544 | 725 | 826 | 1490 | 2750 | 2940 | 4980 | 9300 |
| 2026-05-04 14:30 | 4.57 | 1380 | 20700 (2017) | 355 (1932) | 2520 | 410 | 544 | 725 | 826 | 1490 | 2750 | 2940 | 4980 | 9300 |
| 2026-05-04 13:30 | 4.59 | 1390 | 20700 (2017) | 355 (1932) | 2520 | 410 | 544 | 725 | 826 | 1490 | 2750 | 2940 | 4980 | 9300 |
| 2026-05-04 12:30 | 4.61 | 1410 | 20700 (2017) | 355 (1932) | 2520 | 410 | 544 | 725 | 826 | 1490 | 2750 | 2940 | 4980 | 9300 |
| 2026-05-04 11:30 | 4.63 | 1430 | 20700 (2017) | 355 (1932) | 2520 | 410 | 544 | 725 | 826 | 1490 | 2750 | 2940 | 4980 | 9300 |
| 2026-05-04 10:30 | 4.64 | 1440 | 20700 (2017) | 355 (1932) | 2520 | 410 | 544 | 725 | 826 | 1490 | 2750 | 2940 | 4980 | 9300 |
| 2026-05-04 09:30 | 4.64 | 1440 | 20700 (2017) | 355 (1932) | 2520 | 410 | 544 | 725 | 826 | 1490 | 2750 | 2940 | 4980 | 9300 |
| 2026-05-04 08:30 | 4.66 | 1450 | 20700 (2017) | 355 (1932) | 2520 | 410 | 544 | 725 | 826 | 1490 | 2750 | 2940 | 4980 | 9300 |
| 2026-05-04 07:30 | 4.66 | 1450 | 20700 (2017) | 355 (1932) | 2520 | 410 | 544 | 725 | 826 | 1490 | 2750 | 2940 | 4980 | 9300 |
| 2026-05-04 06:30 | 4.67 | 1460 | 20700 (2017) | 355 (1932) | 2520 | 410 | 544 | 725 | 826 | 1490 | 2750 | 2940 | 4980 | 9300 |
| 2026-05-04 05:30 | 4.68 | 1470 | 20700 (2017) | 355 (1932) | 2520 | 410 | 544 | 725 | 826 | 1490 | 2750 | 2940 | 4980 | 9300 |
| 2026-05-04 04:30 | 4.70 | 1480 | 20700 (2017) | 355 (1932) | 2520 | 410 | 544 | 725 | 826 | 1490 | 2750 | 2940 | 4980 | 9300 |
| 2026-05-04 03:30 | 4.70 | 1480 | 20700 (2017) | 355 (1932) | 2520 | 410 | 544 | 725 | 826 | 1490 | 2750 | 2940 | 4980 | 9300 |
| 2026-05-04 02:30 | 4.71 | 1490 | 20700 (2017) | 355 (1932) | 2520 | 410 | 544 | 725 | 826 | 1490 | 2750 | 2940 | 4980 | 9300 |
| 2026-05-04 01:30 | 4.72 | 1500 | 20700 (2017) | 355 (1932) | 2520 | 410 | 544 | 725 | 826 | 1490 | 2750 | 2940 | 4980 | 9300 |
| 2026-05-04 00:30 | 4.73 | 1510 | 20700 (2017) | 355 (1932) | 2520 | 410 | 544 | 725 | 826 | 1490 | 2750 | 2940 | 4980 | 9300 |
| 2026-05-03 23:30 | 4.74 | 1520 | 20700 (2017) | 355 (1932) | 2520 | 410 | 544 | 725 | 826 | 1490 | 2750 | 2940 | 4980 | 9300 |
| 2026-05-03 22:30 | 4.76 | 1540 | 10200 (1983) | 352 (2000) | 2340 | 405 | 545 | 732 | 835 | 1490 | 2870 | 3310 | 5720 | 8590 |
| 2026-05-03 21:30 | 4.77 | 1540 | 10200 (1983) | 352 (2000) | 2340 | 405 | 545 | 732 | 835 | 1490 | 2870 | 3310 | 5720 | 8590 |
| 2026-05-03 20:30 | 4.78 | 1550 | 10200 (1983) | 352 (2000) | 2340 | 405 | 545 | 732 | 835 | 1490 | 2870 | 3310 | 5720 | 8590 |
| 2026-05-03 19:30 | 4.77 | 1540 | 10200 (1983) | 352 (2000) | 2340 | 405 | 545 | 732 | 835 | 1490 | 2870 | 3310 | 5720 | 8590 |
| 2026-05-03 18:30 | 4.81 | 1580 | 10200 (1983) | 352 (2000) | 2340 | 405 | 545 | 732 | 835 | 1490 | 2870 | 3310 | 5720 | 8590 |
| 2026-05-03 17:30 | 4.81 | 1580 | 10200 (1983) | 352 (2000) | 2340 | 405 | 545 | 732 | 835 | 1490 | 2870 | 3310 | 5720 | 8590 |
| 2026-05-03 16:30 | 4.84 | 1600 | 10200 (1983) | 352 (2000) | 2340 | 405 | 545 | 732 | 835 | 1490 | 2870 | 3310 | 5720 | 8590 |
| 2026-05-03 15:30 | 4.81 | 1580 | 10200 (1983) | 352 (2000) | 2340 | 405 | 545 | 732 | 835 | 1490 | 2870 | 3310 | 5720 | 8590 |
| 2026-05-03 14:30 | 4.86 | 1620 | 10200 (1983) | 352 (2000) | 2340 | 405 | 545 | 732 | 835 | 1490 | 2870 | 3310 | 5720 | 8590 |
| 2026-05-03 13:30 | 4.87 | 1630 | 10200 (1983) | 352 (2000) | 2340 | 405 | 545 | 732 | 835 | 1490 | 2870 | 3310 | 5720 | 8590 |
| 2026-05-03 12:30 | 4.88 | 1640 | 10200 (1983) | 352 (2000) | 2340 | 405 | 545 | 732 | 835 | 1490 | 2870 | 3310 | 5720 | 8590 |
| 2026-05-03 11:30 | 4.87 | 1630 | 10200 (1983) | 352 (2000) | 2340 | 405 | 545 | 732 | 835 | 1490 | 2870 | 3310 | 5720 | 8590 |
| 2026-05-03 10:30 | 4.90 | 1660 | 10200 (1983) | 352 (2000) | 2340 | 405 | 545 | 732 | 835 | 1490 | 2870 | 3310 | 5720 | 8590 |
| 2026-05-03 09:30 | 4.92 | 1670 | 10200 (1983) | 352 (2000) | 2340 | 405 | 545 | 732 | 835 | 1490 | 2870 | 3310 | 5720 | 8590 |
| 2026-05-03 08:30 | 4.93 | 1680 | 10200 (1983) | 352 (2000) | 2340 | 405 | 545 | 732 | 835 | 1490 | 2870 | 3310 | 5720 | 8590 |
| 2026-05-03 07:30 | 4.95 | 1700 | 10200 (1983) | 352 (2000) | 2340 | 405 | 545 | 732 | 835 | 1490 | 2870 | 3310 | 5720 | 8590 |
| 2026-05-03 06:30 | 4.96 | 1710 | 10200 (1983) | 352 (2000) | 2340 | 405 | 545 | 732 | 835 | 1490 | 2870 | 3310 | 5720 | 8590 |
| 2026-05-03 05:30 | 4.98 | 1730 | 10200 (1983) | 352 (2000) | 2340 | 405 | 545 | 732 | 835 | 1490 | 2870 | 3310 | 5720 | 8590 |
| 2026-05-03 04:30 | 4.99 | 1740 | 10200 (1983) | 352 (2000) | 2340 | 405 | 545 | 732 | 835 | 1490 | 2870 | 3310 | 5720 | 8590 |
| 2026-05-03 03:30 | 5.02 | 1760 | 10200 (1983) | 352 (2000) | 2340 | 405 | 545 | 732 | 835 | 1490 | 2870 | 3310 | 5720 | 8590 |
| 2026-05-03 02:30 | 5.03 | 1770 | 10200 (1983) | 352 (2000) | 2340 | 405 | 545 | 732 | 835 | 1490 | 2870 | 3310 | 5720 | 8590 |
| 2026-05-03 01:30 | 5.04 | 1780 | 10200 (1983) | 352 (2000) | 2340 | 405 | 545 | 732 | 835 | 1490 | 2870 | 3310 | 5720 | 8590 |
| 2026-05-03 00:30 | 5.07 | 1810 | 10200 (1983) | 352 (2000) | 2340 | 405 | 545 | 732 | 835 | 1490 | 2870 | 3310 | 5720 | 8590 |
| 2026-05-02 23:30 | 5.07 | 1810 | 10200 (1983) | 352 (2000) | 2340 | 405 | 545 | 732 | 835 | 1490 | 2870 | 3310 | 5720 | 8590 |
| 2026-05-02 22:30 | 5.09 | 1830 | 30500 (2017) | 307 (1954) | 3030 | 418 | 569 | 772 | 863 | 1590 | 3080 | 3480 | 6840 | 11900 |
| 2026-05-02 21:30 | 5.10 | 1840 | 30500 (2017) | 307 (1954) | 3030 | 418 | 569 | 772 | 863 | 1590 | 3080 | 3480 | 6840 | 11900 |
| 2026-05-02 20:30 | 5.12 | 1860 | 30500 (2017) | 307 (1954) | 3030 | 418 | 569 | 772 | 863 | 1590 | 3080 | 3480 | 6840 | 11900 |
| 2026-05-02 19:30 | 5.12 | 1860 | 30500 (2017) | 307 (1954) | 3030 | 418 | 569 | 772 | 863 | 1590 | 3080 | 3480 | 6840 | 11900 |
| 2026-05-02 18:30 | 5.18 | 1910 | 30500 (2017) | 307 (1954) | 3030 | 418 | 569 | 772 | 863 | 1590 | 3080 | 3480 | 6840 | 11900 |
| 2026-05-02 17:30 | 5.17 | 1900 | 30500 (2017) | 307 (1954) | 3030 | 418 | 569 | 772 | 863 | 1590 | 3080 | 3480 | 6840 | 11900 |
| 2026-05-02 16:30 | 5.18 | 1910 | 30500 (2017) | 307 (1954) | 3030 | 418 | 569 | 772 | 863 | 1590 | 3080 | 3480 | 6840 | 11900 |
| 2026-05-02 15:30 | 5.19 | 1920 | 30500 (2017) | 307 (1954) | 3030 | 418 | 569 | 772 | 863 | 1590 | 3080 | 3480 | 6840 | 11900 |
| 2026-05-02 14:30 | 5.22 | 1950 | 30500 (2017) | 307 (1954) | 3030 | 418 | 569 | 772 | 863 | 1590 | 3080 | 3480 | 6840 | 11900 |
| 2026-05-02 13:30 | 5.23 | 1960 | 30500 (2017) | 307 (1954) | 3030 | 418 | 569 | 772 | 863 | 1590 | 3080 | 3480 | 6840 | 11900 |
| 2026-05-02 12:30 | 5.23 | 1960 | 30500 (2017) | 307 (1954) | 3030 | 418 | 569 | 772 | 863 | 1590 | 3080 | 3480 | 6840 | 11900 |
| 2026-05-02 11:30 | 5.27 | 2000 | 30500 (2017) | 307 (1954) | 3030 | 418 | 569 | 772 | 863 | 1590 | 3080 | 3480 | 6840 | 11900 |
| 2026-05-02 10:30 | 5.30 | 2030 | 30500 (2017) | 307 (1954) | 3030 | 418 | 569 | 772 | 863 | 1590 | 3080 | 3480 | 6840 | 11900 |
| 2026-05-02 09:30 | 5.31 | 2040 | 30500 (2017) | 307 (1954) | 3030 | 418 | 569 | 772 | 863 | 1590 | 3080 | 3480 | 6840 | 11900 |
| 2026-05-02 08:30 | 5.36 | 2080 | 30500 (2017) | 307 (1954) | 3030 | 418 | 569 | 772 | 863 | 1590 | 3080 | 3480 | 6840 | 11900 |
| 2026-05-02 07:30 | 5.37 | 2090 | 30500 (2017) | 307 (1954) | 3030 | 418 | 569 | 772 | 863 | 1590 | 3080 | 3480 | 6840 | 11900 |
| 2026-05-02 06:30 | 5.39 | 2110 | 30500 (2017) | 307 (1954) | 3030 | 418 | 569 | 772 | 863 | 1590 | 3080 | 3480 | 6840 | 11900 |
| 2026-05-02 05:30 | 5.41 | 2130 | 30500 (2017) | 307 (1954) | 3030 | 418 | 569 | 772 | 863 | 1590 | 3080 | 3480 | 6840 | 11900 |
| 2026-05-02 04:30 | 5.43 | 2150 | 30500 (2017) | 307 (1954) | 3030 | 418 | 569 | 772 | 863 | 1590 | 3080 | 3480 | 6840 | 11900 |
| 2026-05-02 03:30 | 5.45 | 2170 | 30500 (2017) | 307 (1954) | 3030 | 418 | 569 | 772 | 863 | 1590 | 3080 | 3480 | 6840 | 11900 |
| 2026-05-02 02:30 | 5.48 | 2200 | 30500 (2017) | 307 (1954) | 3030 | 418 | 569 | 772 | 863 | 1590 | 3080 | 3480 | 6840 | 11900 |
| 2026-05-02 01:30 | 5.49 | 2210 | 30500 (2017) | 307 (1954) | 3030 | 418 | 569 | 772 | 863 | 1590 | 3080 | 3480 | 6840 | 11900 |
| 2026-05-02 00:30 | 5.52 | 2240 | 30500 (2017) | 307 (1954) | 3030 | 418 | 569 | 772 | 863 | 1590 | 3080 | 3480 | 6840 | 11900 |
| 2026-05-01 23:30 | 5.53 | 2250 | 30500 (2017) | 307 (1954) | 3030 | 418 | 569 | 772 | 863 | 1590 | 3080 | 3480 | 6840 | 11900 |
| 2026-05-01 22:30 | 5.56 | 2280 | 83000 (2017) | 270 (1954) | 3730 | 431 | 606 | 770 | 842 | 1550 | 3130 | 3540 | 5830 | 10600 |
| 2026-05-01 21:30 | 5.58 | 2300 | 83000 (2017) | 270 (1954) | 3730 | 431 | 606 | 770 | 842 | 1550 | 3130 | 3540 | 5830 | 10600 |
| 2026-05-01 20:30 | 5.60 | 2320 | 83000 (2017) | 270 (1954) | 3730 | 431 | 606 | 770 | 842 | 1550 | 3130 | 3540 | 5830 | 10600 |
| 2026-05-01 19:30 | 5.59 | 2310 | 83000 (2017) | 270 (1954) | 3730 | 431 | 606 | 770 | 842 | 1550 | 3130 | 3540 | 5830 | 10600 |
| 2026-05-01 18:30 | 5.61 | 2340 | 83000 (2017) | 270 (1954) | 3730 | 431 | 606 | 770 | 842 | 1550 | 3130 | 3540 | 5830 | 10600 |
| 2026-05-01 17:30 | 5.66 | 2390 | 83000 (2017) | 270 (1954) | 3730 | 431 | 606 | 770 | 842 | 1550 | 3130 | 3540 | 5830 | 10600 |
| 2026-05-01 16:30 | 5.68 | 2410 | 83000 (2017) | 270 (1954) | 3730 | 431 | 606 | 770 | 842 | 1550 | 3130 | 3540 | 5830 | 10600 |
| 2026-05-01 15:30 | 5.72 | 2450 | 83000 (2017) | 270 (1954) | 3730 | 431 | 606 | 770 | 842 | 1550 | 3130 | 3540 | 5830 | 10600 |
| 2026-05-01 14:30 | 5.77 | 2500 | 83000 (2017) | 270 (1954) | 3730 | 431 | 606 | 770 | 842 | 1550 | 3130 | 3540 | 5830 | 10600 |
| 2026-05-01 13:30 | 5.79 | 2520 | 83000 (2017) | 270 (1954) | 3730 | 431 | 606 | 770 | 842 | 1550 | 3130 | 3540 | 5830 | 10600 |
| 2026-05-01 12:30 | 5.78 | 2510 | 83000 (2017) | 270 (1954) | 3730 | 431 | 606 | 770 | 842 | 1550 | 3130 | 3540 | 5830 | 10600 |
| 2026-05-01 11:30 | 5.84 | 2580 | 83000 (2017) | 270 (1954) | 3730 | 431 | 606 | 770 | 842 | 1550 | 3130 | 3540 | 5830 | 10600 |
| 2026-05-01 10:30 | 5.86 | 2600 | 83000 (2017) | 270 (1954) | 3730 | 431 | 606 | 770 | 842 | 1550 | 3130 | 3540 | 5830 | 10600 |
| 2026-05-01 09:30 | 5.89 | 2630 | 83000 (2017) | 270 (1954) | 3730 | 431 | 606 | 770 | 842 | 1550 | 3130 | 3540 | 5830 | 10600 |
| 2026-05-01 08:30 | 5.91 | 2650 | 83000 (2017) | 270 (1954) | 3730 | 431 | 606 | 770 | 842 | 1550 | 3130 | 3540 | 5830 | 10600 |
| 2026-05-01 07:30 | 5.94 | 2690 | 83000 (2017) | 270 (1954) | 3730 | 431 | 606 | 770 | 842 | 1550 | 3130 | 3540 | 5830 | 10600 |
| 2026-05-01 06:30 | 5.98 | 2730 | 83000 (2017) | 270 (1954) | 3730 | 431 | 606 | 770 | 842 | 1550 | 3130 | 3540 | 5830 | 10600 |
| 2026-05-01 05:30 | 5.99 | 2740 | 83000 (2017) | 270 (1954) | 3730 | 431 | 606 | 770 | 842 | 1550 | 3130 | 3540 | 5830 | 10600 |
| 2026-05-01 04:30 | 6.03 | 2790 | 83000 (2017) | 270 (1954) | 3730 | 431 | 606 | 770 | 842 | 1550 | 3130 | 3540 | 5830 | 10600 |
| 2026-05-01 03:30 | 6.05 | 2810 | 83000 (2017) | 270 (1954) | 3730 | 431 | 606 | 770 | 842 | 1550 | 3130 | 3540 | 5830 | 10600 |
| 2026-05-01 02:30 | 6.09 | 2850 | 83000 (2017) | 270 (1954) | 3730 | 431 | 606 | 770 | 842 | 1550 | 3130 | 3540 | 5830 | 10600 |
| 2026-05-01 01:30 | 6.12 | 2890 | 83000 (2017) | 270 (1954) | 3730 | 431 | 606 | 770 | 842 | 1550 | 3130 | 3540 | 5830 | 10600 |
| 2026-05-01 00:30 | 6.16 | 2930 | 83000 (2017) | 270 (1954) | 3730 | 431 | 606 | 770 | 842 | 1550 | 3130 | 3540 | 5830 | 10600 |
| 2026-04-30 23:30 | 6.16 | 2930 | 83000 (2017) | 270 (1954) | 3730 | 431 | 606 | 770 | 842 | 1550 | 3130 | 3540 | 5830 | 10600 |
| 2026-04-30 22:30 | 6.21 | 2990 | 65300 (2017) | 270 (1954) | 3450 | 444 | 608 | 800 | 866 | 1530 | 2370 | 2820 | 6720 | 14800 |
| 2026-04-30 21:30 | 6.26 | 3050 | 65300 (2017) | 270 (1954) | 3450 | 444 | 608 | 800 | 866 | 1530 | 2370 | 2820 | 6720 | 14800 |
| 2026-04-30 20:30 | 6.29 | 3080 | 65300 (2017) | 270 (1954) | 3450 | 444 | 608 | 800 | 866 | 1530 | 2370 | 2820 | 6720 | 14800 |
| 2026-04-30 19:30 | 6.32 | 3120 | 65300 (2017) | 270 (1954) | 3450 | 444 | 608 | 800 | 866 | 1530 | 2370 | 2820 | 6720 | 14800 |
| 2026-04-30 18:30 | 6.38 | 3190 | 65300 (2017) | 270 (1954) | 3450 | 444 | 608 | 800 | 866 | 1530 | 2370 | 2820 | 6720 | 14800 |
| 2026-04-30 17:30 | 6.41 | 3220 | 65300 (2017) | 270 (1954) | 3450 | 444 | 608 | 800 | 866 | 1530 | 2370 | 2820 | 6720 | 14800 |
| 2026-04-30 16:30 | 6.46 | 3280 | 65300 (2017) | 270 (1954) | 3450 | 444 | 608 | 800 | 866 | 1530 | 2370 | 2820 | 6720 | 14800 |
| 2026-04-30 15:30 | 6.48 | 3300 | 65300 (2017) | 270 (1954) | 3450 | 444 | 608 | 800 | 866 | 1530 | 2370 | 2820 | 6720 | 14800 |
| 2026-04-30 14:30 | 6.54 | 3380 | 65300 (2017) | 270 (1954) | 3450 | 444 | 608 | 800 | 866 | 1530 | 2370 | 2820 | 6720 | 14800 |
| 2026-04-30 13:30 | 6.57 | 3410 | 65300 (2017) | 270 (1954) | 3450 | 444 | 608 | 800 | 866 | 1530 | 2370 | 2820 | 6720 | 14800 |
| 2026-04-30 12:30 | 6.58 | 3420 | 65300 (2017) | 270 (1954) | 3450 | 444 | 608 | 800 | 866 | 1530 | 2370 | 2820 | 6720 | 14800 |
| 2026-04-30 11:30 | 6.66 | 3520 | 65300 (2017) | 270 (1954) | 3450 | 444 | 608 | 800 | 866 | 1530 | 2370 | 2820 | 6720 | 14800 |
| 2026-04-30 10:30 | 6.68 | 3550 | 65300 (2017) | 270 (1954) | 3450 | 444 | 608 | 800 | 866 | 1530 | 2370 | 2820 | 6720 | 14800 |
| 2026-04-30 09:30 | 6.74 | 3620 | 65300 (2017) | 270 (1954) | 3450 | 444 | 608 | 800 | 866 | 1530 | 2370 | 2820 | 6720 | 14800 |
| 2026-04-30 08:30 | 6.80 | 3690 | 65300 (2017) | 270 (1954) | 3450 | 444 | 608 | 800 | 866 | 1530 | 2370 | 2820 | 6720 | 14800 |
| 2026-04-30 07:30 | 6.85 | 3760 | 65300 (2017) | 270 (1954) | 3450 | 444 | 608 | 800 | 866 | 1530 | 2370 | 2820 | 6720 | 14800 |
| 2026-04-30 06:30 | 6.90 | 3820 | 65300 (2017) | 270 (1954) | 3450 | 444 | 608 | 800 | 866 | 1530 | 2370 | 2820 | 6720 | 14800 |
| 2026-04-30 05:30 | 6.95 | 3880 | 65300 (2017) | 270 (1954) | 3450 | 444 | 608 | 800 | 866 | 1530 | 2370 | 2820 | 6720 | 14800 |
| 2026-04-30 04:30 | 7.01 | 3960 | 65300 (2017) | 270 (1954) | 3450 | 444 | 608 | 800 | 866 | 1530 | 2370 | 2820 | 6720 | 14800 |
| 2026-04-30 03:30 | 7.06 | 4030 | 65300 (2017) | 270 (1954) | 3450 | 444 | 608 | 800 | 866 | 1530 | 2370 | 2820 | 6720 | 14800 |
| 2026-04-30 02:30 | 7.11 | 4090 | 65300 (2017) | 270 (1954) | 3450 | 444 | 608 | 800 | 866 | 1530 | 2370 | 2820 | 6720 | 14800 |
| 2026-04-30 01:30 | 7.16 | 4160 | 65300 (2017) | 270 (1954) | 3450 | 444 | 608 | 800 | 866 | 1530 | 2370 | 2820 | 6720 | 14800 |
| 2026-04-30 00:30 | 7.21 | 4220 | 65300 (2017) | 270 (1954) | 3450 | 444 | 608 | 800 | 866 | 1530 | 2370 | 2820 | 6720 | 14800 |
| 2026-04-29 23:30 | 7.26 | 4290 | 65300 (2017) | 270 (1954) | 3450 | 444 | 608 | 800 | 866 | 1530 | 2370 | 2820 | 6720 | 14800 |
| 2026-04-29 22:30 | 7.28 | 4320 | 32500 (1994) | 279 (1954) | 2810 | 471 | 604 | 799 | 861 | 1500 | 2220 | 2480 | 6140 | 13300 |
| 2026-04-29 21:30 | 7.28 | 4320 | 32500 (1994) | 279 (1954) | 2810 | 471 | 604 | 799 | 861 | 1500 | 2220 | 2480 | 6140 | 13300 |
| 2026-04-29 20:30 | 7.27 | 4300 | 32500 (1994) | 279 (1954) | 2810 | 471 | 604 | 799 | 861 | 1500 | 2220 | 2480 | 6140 | 13300 |
| 2026-04-29 19:30 | 7.25 | 4280 | 32500 (1994) | 279 (1954) | 2810 | 471 | 604 | 799 | 861 | 1500 | 2220 | 2480 | 6140 | 13300 |
| 2026-04-29 18:30 | 7.22 | 4240 | 32500 (1994) | 279 (1954) | 2810 | 471 | 604 | 799 | 861 | 1500 | 2220 | 2480 | 6140 | 13300 |
| 2026-04-29 17:30 | 7.18 | 4180 | 32500 (1994) | 279 (1954) | 2810 | 471 | 604 | 799 | 861 | 1500 | 2220 | 2480 | 6140 | 13300 |
| 2026-04-29 16:30 | 7.13 | 4120 | 32500 (1994) | 279 (1954) | 2810 | 471 | 604 | 799 | 861 | 1500 | 2220 | 2480 | 6140 | 13300 |
| 2026-04-29 15:30 | 7.13 | 4120 | 32500 (1994) | 279 (1954) | 2810 | 471 | 604 | 799 | 861 | 1500 | 2220 | 2480 | 6140 | 13300 |
| 2026-04-29 14:30 | 7.11 | 4090 | 32500 (1994) | 279 (1954) | 2810 | 471 | 604 | 799 | 861 | 1500 | 2220 | 2480 | 6140 | 13300 |
| 2026-04-29 13:30 | 7.08 | 4050 | 32500 (1994) | 279 (1954) | 2810 | 471 | 604 | 799 | 861 | 1500 | 2220 | 2480 | 6140 | 13300 |
| 2026-04-29 12:30 | 7.04 | 4000 | 32500 (1994) | 279 (1954) | 2810 | 471 | 604 | 799 | 861 | 1500 | 2220 | 2480 | 6140 | 13300 |
| 2026-04-29 11:30 | 6.98 | 3920 | 32500 (1994) | 279 (1954) | 2810 | 471 | 604 | 799 | 861 | 1500 | 2220 | 2480 | 6140 | 13300 |
| 2026-04-29 10:30 | 6.94 | 3870 | 32500 (1994) | 279 (1954) | 2810 | 471 | 604 | 799 | 861 | 1500 | 2220 | 2480 | 6140 | 13300 |
| 2026-04-29 09:30 | 6.90 | 3820 | 32500 (1994) | 279 (1954) | 2810 | 471 | 604 | 799 | 861 | 1500 | 2220 | 2480 | 6140 | 13300 |
| 2026-04-29 08:30 | 6.86 | 3770 | 32500 (1994) | 279 (1954) | 2810 | 471 | 604 | 799 | 861 | 1500 | 2220 | 2480 | 6140 | 13300 |
| 2026-04-29 07:30 | 6.84 | 3740 | 32500 (1994) | 279 (1954) | 2810 | 471 | 604 | 799 | 861 | 1500 | 2220 | 2480 | 6140 | 13300 |
| 2026-04-29 06:30 | 6.83 | 3730 | 32500 (1994) | 279 (1954) | 2810 | 471 | 604 | 799 | 861 | 1500 | 2220 | 2480 | 6140 | 13300 |
| 2026-04-29 05:30 | 6.83 | 3730 | 32500 (1994) | 279 (1954) | 2810 | 471 | 604 | 799 | 861 | 1500 | 2220 | 2480 | 6140 | 13300 |
| 2026-04-29 04:30 | 6.84 | 3740 | 32500 (1994) | 279 (1954) | 2810 | 471 | 604 | 799 | 861 | 1500 | 2220 | 2480 | 6140 | 13300 |
| 2026-04-29 03:30 | 6.85 | 3760 | 32500 (1994) | 279 (1954) | 2810 | 471 | 604 | 799 | 861 | 1500 | 2220 | 2480 | 6140 | 13300 |
| 2026-04-29 02:30 | 6.87 | 3780 | 32500 (1994) | 279 (1954) | 2810 | 471 | 604 | 799 | 861 | 1500 | 2220 | 2480 | 6140 | 13300 |
| 2026-04-29 01:30 | 6.86 | 3770 | 32500 (1994) | 279 (1954) | 2810 | 471 | 604 | 799 | 861 | 1500 | 2220 | 2480 | 6140 | 13300 |
| 2026-04-29 00:30 | 6.89 | 3810 | 32500 (1994) | 279 (1954) | 2810 | 471 | 604 | 799 | 861 | 1500 | 2220 | 2480 | 6140 | 13300 |
| 2026-04-28 23:30 | 6.88 | 3800 | 32500 (1994) | 279 (1954) | 2810 | 471 | 604 | 799 | 861 | 1500 | 2220 | 2480 | 6140 | 13300 |
| 2026-04-28 22:30 | 6.90 | 3820 | 23500 (2011) | 278 (1956) | 2380 | 418 | 594 | 811 | 875 | 1450 | 2430 | 2610 | 5120 | 7740 |
| 2026-04-28 21:30 | 6.90 | 3820 | 23500 (2011) | 278 (1956) | 2380 | 418 | 594 | 811 | 875 | 1450 | 2430 | 2610 | 5120 | 7740 |
| 2026-04-28 20:30 | 6.89 | 3810 | 23500 (2011) | 278 (1956) | 2380 | 418 | 594 | 811 | 875 | 1450 | 2430 | 2610 | 5120 | 7740 |
| 2026-04-28 19:30 | 6.88 | 3800 | 23500 (2011) | 278 (1956) | 2380 | 418 | 594 | 811 | 875 | 1450 | 2430 | 2610 | 5120 | 7740 |
| 2026-04-28 18:30 | 6.88 | 3800 | 23500 (2011) | 278 (1956) | 2380 | 418 | 594 | 811 | 875 | 1450 | 2430 | 2610 | 5120 | 7740 |
| 2026-04-28 17:30 | 6.88 | 3800 | 23500 (2011) | 278 (1956) | 2380 | 418 | 594 | 811 | 875 | 1450 | 2430 | 2610 | 5120 | 7740 |
| 2026-04-28 16:30 | 6.91 | 3830 | 23500 (2011) | 278 (1956) | 2380 | 418 | 594 | 811 | 875 | 1450 | 2430 | 2610 | 5120 | 7740 |
| 2026-04-28 15:30 | 6.95 | 3880 | 23500 (2011) | 278 (1956) | 2380 | 418 | 594 | 811 | 875 | 1450 | 2430 | 2610 | 5120 | 7740 |
| 2026-04-28 14:30 | 6.99 | 3940 | 23500 (2011) | 278 (1956) | 2380 | 418 | 594 | 811 | 875 | 1450 | 2430 | 2610 | 5120 | 7740 |
| 2026-04-28 13:30 | 7.07 | 4040 | 23500 (2011) | 278 (1956) | 2380 | 418 | 594 | 811 | 875 | 1450 | 2430 | 2610 | 5120 | 7740 |
| 2026-04-28 12:30 | 7.13 | 4120 | 23500 (2011) | 278 (1956) | 2380 | 418 | 594 | 811 | 875 | 1450 | 2430 | 2610 | 5120 | 7740 |
| 2026-04-28 11:30 | 7.25 | 4280 | 23500 (2011) | 278 (1956) | 2380 | 418 | 594 | 811 | 875 | 1450 | 2430 | 2610 | 5120 | 7740 |
| 2026-04-28 10:30 | 7.42 | 4510 | 23500 (2011) | 278 (1956) | 2380 | 418 | 594 | 811 | 875 | 1450 | 2430 | 2610 | 5120 | 7740 |
| 2026-04-28 09:30 | 7.59 | 4740 | 23500 (2011) | 278 (1956) | 2380 | 418 | 594 | 811 | 875 | 1450 | 2430 | 2610 | 5120 | 7740 |
| 2026-04-28 08:30 | 7.81 | 5050 | 23500 (2011) | 278 (1956) | 2380 | 418 | 594 | 811 | 875 | 1450 | 2430 | 2610 | 5120 | 7740 |
| 2026-04-28 07:30 | 8.07 | 5440 | 23500 (2011) | 278 (1956) | 2380 | 418 | 594 | 811 | 875 | 1450 | 2430 | 2610 | 5120 | 7740 |
| 2026-04-28 06:30 | 8.37 | 5890 | 23500 (2011) | 278 (1956) | 2380 | 418 | 594 | 811 | 875 | 1450 | 2430 | 2610 | 5120 | 7740 |
| 2026-04-28 05:30 | 8.68 | 6380 | 23500 (2011) | 278 (1956) | 2380 | 418 | 594 | 811 | 875 | 1450 | 2430 | 2610 | 5120 | 7740 |
| 2026-04-28 04:30 | 8.95 | 6820 | 23500 (2011) | 278 (1956) | 2380 | 418 | 594 | 811 | 875 | 1450 | 2430 | 2610 | 5120 | 7740 |
| 2026-04-28 03:30 | 9.18 | 7200 | 23500 (2011) | 278 (1956) | 2380 | 418 | 594 | 811 | 875 | 1450 | 2430 | 2610 | 5120 | 7740 |
| 2026-04-28 02:30 | 9.30 | 7410 | 23500 (2011) | 278 (1956) | 2380 | 418 | 594 | 811 | 875 | 1450 | 2430 | 2610 | 5120 | 7740 |
| 2026-04-28 01:30 | 9.32 | 7440 | 23500 (2011) | 278 (1956) | 2380 | 418 | 594 | 811 | 875 | 1450 | 2430 | 2610 | 5120 | 7740 |
| 2026-04-28 00:30 | 9.20 | 7230 | 23500 (2011) | 278 (1956) | 2380 | 418 | 594 | 811 | 875 | 1450 | 2430 | 2610 | 5120 | 7740 |
| 2026-04-27 23:30 | 8.96 | 6830 | 23500 (2011) | 278 (1956) | 2380 | 418 | 594 | 811 | 875 | 1450 | 2430 | 2610 | 5120 | 7740 |
A total of 177 rows are displayed for years 1922 through 2025.